createdAt,value
2022-09-30T00:03:05.504Z,142
2022-09-30T00:23:05.502Z,141
2022-09-30T00:43:05.551Z,139
2022-09-30T01:03:05.574Z,142
2022-09-30T01:23:05.603Z,137
2022-09-30T02:03:05.684Z,144
2022-09-30T02:23:05.705Z,139
2022-09-30T02:43:05.711Z,140
2022-09-30T03:23:05.867Z,140
2022-09-30T03:43:05.822Z,142
2022-09-30T04:03:05.850Z,142
2022-09-30T04:23:05.886Z,142
2022-09-30T04:43:05.922Z,139
2022-09-30T05:03:05.949Z,140
2022-09-30T05:23:05.991Z,139
2022-09-30T05:43:06.028Z,142
2022-09-30T06:03:06.106Z,140
2022-09-30T06:23:06.082Z,142
2022-09-30T06:43:06.099Z,140
2022-09-30T07:03:06.170Z,145
2022-09-30T07:23:06.201Z,149
2022-09-30T07:43:06.219Z,149
2022-09-30T08:03:06.235Z,152
2022-09-30T08:23:06.284Z,155
2022-09-30T08:43:06.299Z,159
2022-09-30T09:03:06.341Z,150
2022-09-30T09:23:06.350Z,152
2022-09-30T09:43:06.377Z,152
2022-09-30T10:03:06.404Z,144
2022-09-30T10:23:06.407Z,142
2022-09-30T10:43:06.511Z,142
2022-09-30T11:03:06.547Z,147
2022-09-30T11:23:06.485Z,142
2022-09-30T11:43:08.187Z,138
2022-09-30T12:03:09.956Z,141
2022-09-30T12:23:06.539Z,136
2022-09-30T12:43:06.643Z,132
2022-09-30T13:03:06.561Z,138
2022-09-30T13:23:06.598Z,138
2022-09-30T13:43:06.596Z,139
2022-09-30T14:03:06.625Z,138
2022-09-30T14:23:06.636Z,134
2022-09-30T14:43:06.657Z,134
2022-09-30T15:03:06.668Z,129
2022-09-30T15:23:06.482Z,127
2022-09-30T15:43:06.687Z,130
2022-09-30T16:03:06.764Z,131
2022-09-30T16:23:06.735Z,129
2022-09-30T16:43:07.676Z,124
2022-09-30T17:03:06.745Z,130
2022-09-30T17:23:07.601Z,128
2022-09-30T17:43:06.789Z,129
2022-09-30T18:03:06.825Z,130
2022-09-30T18:23:06.827Z,131
2022-09-30T18:43:06.861Z,131
2022-09-30T19:03:06.871Z,136
2022-09-30T19:23:06.909Z,134
2022-09-30T19:43:06.990Z,133
2022-09-30T20:03:07.017Z,134
2022-09-30T20:23:06.969Z,132
2022-09-30T20:43:07.006Z,141
2022-09-30T21:03:07.012Z,136
2022-09-30T21:23:07.037Z,136
2022-09-30T21:43:07.058Z,138
2022-09-30T22:03:07.075Z,135
2022-09-30T22:23:07.090Z,136
2022-09-30T22:43:07.111Z,133
2022-09-30T23:03:07.140Z,135
2022-09-30T23:23:07.157Z,135
2022-09-30T23:43:06.682Z,133
